createdAt,value
2023-04-18T00:01:44.934Z,41.86
2023-04-18T00:04:11.154Z,41.82
2023-04-18T00:06:37.104Z,41.88
2023-04-18T00:09:03.048Z,41.88
2023-04-18T00:11:29.531Z,42.00
2023-04-18T00:13:56.683Z,42.01
2023-04-18T00:16:23.076Z,41.80
2023-04-18T00:18:48.965Z,41.89
2023-04-18T00:21:16.523Z,41.94
2023-04-18T00:23:42.386Z,41.75
2023-04-18T00:26:08.069Z,41.89
2023-04-18T00:28:33.901Z,41.88
2023-04-18T00:30:59.720Z,41.95
2023-04-18T00:33:25.498Z,41.95
2023-04-18T00:35:51.671Z,42.17
2023-04-18T00:38:17.338Z,41.88
2023-04-18T00:40:42.982Z,41.88
2023-04-18T00:43:08.668Z,42.20
2023-04-18T00:45:34.592Z,42.22
2023-04-18T00:48:00.850Z,42.04
2023-04-18T00:50:26.758Z,41.98
2023-04-18T00:52:52.850Z,42.01
2023-04-18T00:55:18.798Z,42.06
2023-04-18T00:57:45.074Z,41.90
2023-04-18T01:00:11.523Z,42.07
2023-04-18T01:02:38.726Z,42.10
2023-04-18T01:05:05.741Z,42.10
2023-04-18T01:07:33.001Z,41.83
2023-04-18T01:09:59.576Z,42.19
2023-04-18T01:12:25.217Z,42.08
2023-04-18T01:14:50.858Z,42.01
2023-04-18T01:17:18.382Z,41.86
2023-04-18T01:19:45.960Z,42.18
2023-04-18T01:22:13.188Z,42.22
2023-04-18T01:24:38.844Z,41.97
2023-04-18T01:27:05.056Z,41.91
2023-04-18T01:29:30.855Z,42.32
2023-04-18T01:31:56.561Z,41.76
2023-04-18T01:34:22.346Z,42.24
2023-04-18T01:36:48.079Z,42.16
2023-04-18T01:39:13.959Z,42.26
2023-04-18T01:41:41.129Z,41.98
2023-04-18T01:44:06.839Z,42.09
2023-04-18T01:46:32.555Z,42.13
2023-04-18T01:48:58.362Z,41.95
2023-04-18T01:51:25.502Z,41.83
2023-04-18T01:53:51.313Z,42.21
2023-04-18T01:56:16.997Z,41.99
2023-04-18T01:58:42.855Z,41.96
2023-04-18T02:01:08.698Z,42.19
2023-04-18T02:03:34.741Z,42.03
2023-04-18T02:06:01.872Z,41.95
2023-04-18T02:08:27.584Z,42.12
2023-04-18T02:10:53.219Z,42.28
2023-04-18T02:13:18.880Z,42.24
2023-04-18T02:15:45.186Z,41.96
2023-04-18T02:18:11.390Z,42.21
2023-04-18T02:20:37.112Z,41.78
2023-04-18T02:23:03.576Z,42.18
2023-04-18T02:25:29.758Z,41.89
2023-04-18T02:27:56.523Z,42.02
2023-04-18T02:30:22.808Z,42.20
2023-04-18T02:32:51.409Z,42.10
2023-04-18T02:35:18.364Z,42.33
2023-04-18T02:37:44.009Z,42.34
2023-04-18T02:40:10.085Z,42.20
2023-04-18T02:42:35.745Z,42.12
2023-04-18T02:45:01.593Z,42.18
2023-04-18T02:47:27.282Z,42.02
2023-04-18T02:49:53.021Z,41.96
2023-04-18T02:52:18.657Z,42.01
2023-04-18T02:54:44.344Z,42.21
2023-04-18T02:57:09.982Z,42.30
2023-04-18T02:59:35.646Z,42.10
2023-04-18T03:02:01.366Z,42.42
2023-04-18T03:04:27.057Z,41.97
2023-04-18T03:06:52.759Z,42.21
2023-04-18T03:09:18.410Z,42.13
2023-04-18T03:11:44.087Z,42.06
2023-04-18T03:14:09.749Z,42.08
2023-04-18T03:16:35.547Z,41.95
2023-04-18T03:19:01.326Z,42.22
2023-04-18T03:21:26.973Z,42.05
2023-04-18T03:23:52.704Z,42.01
2023-04-18T03:26:18.392Z,42.28
2023-04-18T03:28:44.258Z,42.23
2023-04-18T03:31:09.997Z,42.20
2023-04-18T03:33:35.684Z,42.21
2023-04-18T03:36:01.374Z,42.12
2023-04-18T03:38:27.112Z,42.19
2023-04-18T03:40:53.111Z,42.41
2023-04-18T03:43:20.115Z,42.24
2023-04-18T03:45:46.510Z,42.16
2023-04-18T03:48:13.335Z,42.05
2023-04-18T03:50:39.069Z,42.27
2023-04-18T03:53:04.746Z,42.22
2023-04-18T03:55:30.643Z,41.99
2023-04-18T03:57:58.271Z,42.27
2023-04-18T04:00:24.769Z,42.05
2023-04-18T04:02:50.558Z,42.19
2023-04-18T04:05:16.327Z,42.20
2023-04-18T04:07:42.110Z,42.07
2023-04-18T04:10:08.065Z,42.24
2023-04-18T04:12:33.816Z,42.02
2023-04-18T04:15:00.120Z,41.97
2023-04-18T04:17:25.854Z,41.91
2023-04-18T04:19:51.521Z,42.05
2023-04-18T04:22:17.241Z,42.18
2023-04-18T04:24:43.197Z,42.17
2023-04-18T04:27:10.238Z,42.11
2023-04-18T04:29:37.855Z,42.28
2023-04-18T04:32:04.762Z,41.97
2023-04-18T04:34:30.831Z,42.21
2023-04-18T04:36:56.476Z,41.94
2023-04-18T04:39:22.115Z,41.97
2023-04-18T04:41:48.495Z,42.04
2023-04-18T04:44:16.884Z,42.19
2023-04-18T04:46:44.019Z,42.12
2023-04-18T04:49:10.870Z,41.77
2023-04-18T04:51:36.959Z,41.82
2023-04-18T04:54:03.152Z,39.84
2023-04-18T04:56:28.885Z,39.20
2023-04-18T04:58:55.312Z,39.67
2023-04-18T05:01:21.244Z,38.23
2023-04-18T05:03:47.060Z,38.15
2023-04-18T05:06:13.336Z,37.86
2023-04-18T05:08:39.084Z,37.76
2023-04-18T05:11:04.841Z,37.70
2023-04-18T05:13:30.632Z,37.53
2023-04-18T05:15:58.445Z,37.57
2023-04-18T05:18:24.113Z,38.51
2023-04-18T05:20:49.813Z,37.12
2023-04-18T05:23:15.480Z,37.00
2023-04-18T05:25:41.214Z,37.70
2023-04-18T05:28:07.621Z,39.39
2023-04-18T05:30:33.309Z,39.95
2023-04-18T05:32:59.005Z,41.15
2023-04-18T05:35:24.660Z,41.66
2023-04-18T05:37:50.819Z,41.48
2023-04-18T05:40:16.452Z,41.68
2023-04-18T05:42:42.094Z,41.63
2023-04-18T05:45:08.003Z,41.61
2023-04-18T05:47:33.762Z,41.94
2023-04-18T05:49:59.510Z,41.54
2023-04-18T05:52:25.376Z,41.61
2023-04-18T05:54:51.774Z,41.58
2023-04-18T05:57:17.411Z,41.21
2023-04-18T05:59:43.098Z,41.56
2023-04-18T06:02:12.386Z,41.62
2023-04-18T06:04:40.309Z,41.86
2023-04-18T06:07:06.631Z,41.89
2023-04-18T06:09:32.305Z,41.85
2023-04-18T06:11:57.952Z,41.45
2023-04-18T06:14:23.665Z,41.58
2023-04-18T06:16:49.412Z,41.83
2023-04-18T06:19:15.095Z,41.57
2023-04-18T06:21:41.964Z,41.53
2023-04-18T06:24:08.340Z,41.57
2023-04-18T06:26:34.123Z,41.71
2023-04-18T06:29:00.360Z,41.79
2023-04-18T06:31:26.336Z,41.73
2023-04-18T06:33:52.331Z,41.71
2023-04-18T06:36:18.352Z,41.76
2023-04-18T06:38:44.298Z,41.66
2023-04-18T06:41:10.047Z,41.66
2023-04-18T06:43:35.698Z,41.66
2023-04-18T06:46:04.077Z,41.75
2023-04-18T06:48:29.959Z,41.77
2023-04-18T06:50:55.596Z,42.13
2023-04-18T06:53:21.349Z,41.99
2023-04-18T06:55:47.168Z,41.74
2023-04-18T06:58:15.240Z,42.09
2023-04-18T07:00:41.422Z,42.18
2023-04-18T07:03:11.800Z,41.98
2023-04-18T07:05:39.047Z,42.18
2023-04-18T07:08:04.831Z,41.72
2023-04-18T07:10:30.495Z,41.93
2023-04-18T07:12:56.154Z,42.17
2023-04-18T07:15:21.796Z,41.45
2023-04-18T07:17:47.759Z,41.18
2023-04-18T07:20:14.415Z,41.01
2023-04-18T07:22:40.779Z,41.30
2023-04-18T07:25:06.744Z,40.84
2023-04-18T07:27:35.988Z,41.22
2023-04-18T07:30:02.971Z,40.58
2023-04-18T07:32:28.693Z,40.74
2023-04-18T07:34:56.522Z,41.04
2023-04-18T07:37:22.473Z,41.44
2023-04-18T07:39:48.198Z,41.46
2023-04-18T07:42:13.844Z,40.95
2023-04-18T07:44:39.505Z,41.20
2023-04-18T07:47:09.080Z,41.10
2023-04-18T07:49:34.973Z,41.99
2023-04-18T07:52:00.758Z,41.75
2023-04-18T07:54:26.510Z,41.33
2023-04-18T07:56:52.172Z,40.67
2023-04-18T07:59:17.856Z,40.30
2023-04-18T08:01:43.530Z,39.61
2023-04-18T08:04:09.312Z,40.00
2023-04-18T08:06:35.146Z,38.81
2023-04-18T08:09:04.728Z,39.24
2023-04-18T08:11:31.432Z,39.18
2023-04-18T08:13:57.125Z,39.01
2023-04-18T08:16:22.882Z,41.38
2023-04-18T08:18:48.607Z,41.10
2023-04-18T08:21:14.251Z,39.91
2023-04-18T08:23:39.937Z,41.81
2023-04-18T08:26:05.590Z,41.79
2023-04-18T08:28:31.260Z,41.67
2023-04-18T08:30:56.962Z,41.70
2023-04-18T08:33:23.503Z,41.54
2023-04-18T08:35:50.661Z,41.60
2023-04-18T08:38:17.500Z,41.63
2023-04-18T08:40:43.645Z,41.63
2023-04-18T08:43:13.235Z,41.77
2023-04-18T08:45:40.332Z,41.68
2023-04-18T08:48:06.858Z,41.92
2023-04-18T08:50:33.016Z,41.82
2023-04-18T08:53:00.223Z,42.07
2023-04-18T08:55:26.234Z,38.87
2023-04-18T08:57:55.243Z,40.60
2023-04-18T09:00:21.859Z,41.06
2023-04-18T09:02:48.729Z,41.37
2023-04-18T09:05:18.850Z,41.26
2023-04-18T09:07:45.215Z,41.27
2023-04-18T09:10:11.780Z,41.43
2023-04-18T09:12:49.168Z,41.22
2023-04-18T09:15:16.785Z,41.39
2023-04-18T09:17:48.197Z,41.24
2023-04-18T09:20:25.883Z,41.41
2023-04-18T09:22:53.411Z,41.51
2023-04-18T09:25:39.748Z,41.48
2023-04-18T09:28:28.901Z,41.47
2023-04-18T09:30:56.787Z,41.54
2023-04-18T09:33:27.412Z,41.37
2023-04-18T09:35:54.286Z,41.77
2023-04-18T09:38:19.931Z,41.59
2023-04-18T09:40:45.589Z,41.74
2023-04-18T09:43:19.944Z,41.72
2023-04-18T09:45:48.288Z,41.95
2023-04-18T09:48:14.143Z,41.63
2023-04-18T09:50:40.854Z,41.72
2023-04-18T09:53:07.509Z,41.66
2023-04-18T09:55:34.302Z,41.66
2023-04-18T09:58:00.315Z,41.56
2023-04-18T10:00:26.689Z,41.80
2023-04-18T10:03:07.292Z,41.80
2023-04-18T10:05:34.161Z,41.69
2023-04-18T10:08:00.246Z,41.66
2023-04-18T10:10:26.073Z,41.66
2023-04-18T10:12:55.619Z,40.79
2023-04-18T10:15:23.237Z,39.85
2023-04-18T10:18:03.317Z,39.96
2023-04-18T10:20:32.126Z,40.45
2023-04-18T10:22:58.823Z,38.90
2023-04-18T10:28:14.862Z,40.60
2023-04-18T10:33:35.612Z,40.20
2023-04-18T10:38:48.699Z,40.02
2023-04-18T10:41:23.020Z,41.11
2023-04-18T10:49:28.404Z,41.05
2023-04-18T10:51:57.793Z,41.21
2023-04-18T10:54:46.993Z,41.06
2023-04-18T10:57:13.092Z,40.91
2023-04-18T10:59:43.481Z,41.18
2023-04-18T11:02:27.896Z,40.94
2023-04-18T11:04:55.354Z,39.74
2023-04-18T11:07:39.012Z,40.61
2023-04-18T11:10:05.956Z,39.58
2023-04-18T11:12:35.546Z,39.67
2023-04-18T11:15:04.136Z,40.61
2023-04-18T11:17:32.854Z,41.06
2023-04-18T11:20:00.617Z,39.87
2023-04-18T11:22:26.379Z,40.41
2023-04-18T11:24:57.030Z,40.61
2023-04-18T11:27:24.769Z,40.44
2023-04-18T11:29:54.215Z,39.53
2023-04-18T11:32:21.779Z,41.22
2023-04-18T11:34:50.527Z,40.89
2023-04-18T11:37:16.242Z,40.18
2023-04-18T11:39:42.526Z,40.20
2023-04-18T11:42:08.568Z,40.10
2023-04-18T11:44:36.477Z,40.26
2023-04-18T11:47:02.189Z,39.83
2023-04-18T11:49:29.350Z,39.86
2023-04-18T11:51:55.592Z,39.74
2023-04-18T11:57:27.847Z,39.53
2023-04-18T11:59:56.556Z,39.51
2023-04-18T12:02:25.497Z,39.78
2023-04-18T12:04:55.298Z,39.48
2023-04-18T12:07:41.696Z,38.37
2023-04-18T12:10:21.702Z,38.58
2023-04-18T12:12:49.380Z,39.12
2023-04-18T12:15:16.619Z,38.97
2023-04-18T12:17:44.447Z,38.92
2023-04-18T12:20:10.873Z,38.89
2023-04-18T12:22:54.144Z,38.94
2023-04-18T12:25:24.948Z,39.21
2023-04-18T12:28:14.167Z,37.53
2023-04-18T12:30:40.015Z,38.11
2023-04-18T12:33:05.814Z,38.38
2023-04-18T12:35:31.950Z,38.32
2023-04-18T12:37:59.157Z,38.50
2023-04-18T12:40:25.932Z,38.68
2023-04-18T12:42:52.379Z,39.63
2023-04-18T12:45:19.582Z,38.97
2023-04-18T12:47:46.883Z,39.10
2023-04-18T12:50:18.665Z,39.35
2023-04-18T12:52:44.921Z,39.44
2023-04-18T12:55:11.744Z,39.67
2023-04-18T12:57:37.432Z,39.64
2023-04-18T13:00:09.903Z,39.58
2023-04-18T13:02:36.580Z,40.30
2023-04-18T13:05:03.983Z,40.08
2023-04-18T13:07:30.142Z,39.11
2023-04-18T13:09:55.785Z,38.97
2023-04-18T13:12:21.445Z,39.29
2023-04-18T13:14:47.131Z,39.41
2023-04-18T13:17:12.819Z,39.13
2023-04-18T13:19:38.447Z,39.09
2023-04-18T13:22:04.146Z,39.10
2023-04-18T13:24:29.880Z,39.29
2023-04-18T13:26:55.606Z,39.43
2023-04-18T13:29:21.246Z,40.12
2023-04-18T13:31:46.934Z,39.56
2023-04-18T13:34:12.692Z,39.55
2023-04-18T13:36:38.334Z,39.73
2023-04-18T13:39:04.852Z,39.92
2023-04-18T13:41:30.744Z,40.18
2023-04-18T13:43:56.368Z,39.75
2023-04-18T13:46:23.192Z,39.65
2023-04-18T13:48:48.875Z,40.72
2023-04-18T13:51:14.637Z,40.75
2023-04-18T13:53:40.439Z,40.07
2023-04-18T13:56:06.750Z,40.13
2023-04-18T13:58:32.394Z,39.60
2023-04-18T14:00:58.026Z,39.60
2023-04-18T14:03:23.807Z,40.46
2023-04-18T14:05:49.705Z,39.67
2023-04-18T14:08:15.368Z,39.91
2023-04-18T14:10:41.083Z,40.84
2023-04-18T14:13:06.716Z,40.97
2023-04-18T14:15:32.432Z,40.79
2023-04-18T14:17:58.547Z,39.51
2023-04-18T14:20:25.718Z,40.55
2023-04-18T14:22:53.133Z,41.02
2023-04-18T14:25:18.992Z,40.03
2023-04-18T14:27:46.460Z,40.24
2023-04-18T14:30:13.393Z,39.99
2023-04-18T14:32:39.081Z,40.08
2023-04-18T14:35:06.432Z,40.03
2023-04-18T14:37:32.338Z,39.68
2023-04-18T14:39:58.043Z,39.75
2023-04-18T14:42:23.815Z,39.31
2023-04-18T14:44:49.499Z,39.51
2023-04-18T14:47:15.514Z,39.41
2023-04-18T14:49:41.152Z,39.59
2023-04-18T14:52:06.804Z,39.48
2023-04-18T14:54:32.899Z,39.54
2023-04-18T14:56:58.580Z,39.43
2023-04-18T14:59:27.090Z,39.26
2023-04-18T15:01:52.904Z,39.47
2023-04-18T15:04:18.985Z,39.65
2023-04-18T15:06:45.101Z,39.36
2023-04-18T15:09:10.857Z,39.48
2023-04-18T15:11:37.157Z,39.23
2023-04-18T15:14:02.845Z,39.57
2023-04-18T15:16:28.545Z,39.36
2023-04-18T15:18:54.241Z,39.59
2023-04-18T15:21:19.864Z,39.59
2023-04-18T15:23:45.509Z,39.44
2023-04-18T15:26:11.151Z,39.58
2023-04-18T15:28:36.814Z,39.55
2023-04-18T15:31:02.467Z,39.88
2023-04-18T15:33:28.131Z,39.68
2023-04-18T15:35:54.786Z,39.43
2023-04-18T15:38:20.448Z,39.59
2023-04-18T15:40:46.171Z,39.57
2023-04-18T15:43:12.949Z,39.67
2023-04-18T15:45:38.624Z,39.42
2023-04-18T15:48:04.584Z,40.67
2023-04-18T15:50:32.733Z,41.11
2023-04-18T15:52:59.151Z,39.79
2023-04-18T15:55:24.807Z,39.78
2023-04-18T15:57:50.452Z,39.66
2023-04-18T16:00:18.788Z,40.18
2023-04-18T16:02:45.101Z,40.04
2023-04-18T16:05:11.630Z,40.03
2023-04-18T16:07:38.622Z,39.84
2023-04-18T16:10:07.790Z,39.68
2023-04-18T16:12:33.977Z,40.11
2023-04-18T16:14:59.819Z,39.92
2023-04-18T16:17:25.508Z,39.75
2023-04-18T16:19:51.208Z,39.75
2023-04-18T16:22:16.943Z,39.76
2023-04-18T16:24:42.620Z,40.42
2023-04-18T16:27:08.294Z,39.71
2023-04-18T16:29:34.388Z,39.86
2023-04-18T16:32:00.041Z,40.15
2023-04-18T16:34:25.693Z,39.76
2023-04-18T16:36:51.519Z,40.32
2023-04-18T16:39:17.886Z,40.05
2023-04-18T16:41:43.616Z,40.04
2023-04-18T16:44:09.298Z,40.10
2023-04-18T16:46:34.985Z,39.96
2023-04-18T16:49:00.773Z,39.98
2023-04-18T16:51:27.993Z,40.32
2023-04-18T16:53:54.324Z,40.90
2023-04-18T16:56:20.215Z,40.39
2023-04-18T16:58:45.990Z,40.10
2023-04-18T17:01:11.766Z,40.74
2023-04-18T17:03:37.528Z,40.31
2023-04-18T17:06:03.691Z,40.40
2023-04-18T17:08:31.119Z,40.73
2023-04-18T17:10:58.506Z,40.79
2023-04-18T17:13:26.017Z,40.15
2023-04-18T17:15:52.447Z,40.75
2023-04-18T17:18:18.171Z,40.62
2023-04-18T17:20:43.829Z,40.84
2023-04-18T17:23:09.477Z,40.70
2023-04-18T17:25:35.777Z,41.00
2023-04-18T17:28:01.502Z,40.30
2023-04-18T17:30:28.008Z,40.86
2023-04-18T17:32:53.694Z,40.29
2023-04-18T17:35:19.633Z,40.57
2023-04-18T17:37:46.711Z,40.86
2023-04-18T17:40:12.919Z,40.95
2023-04-18T17:42:38.948Z,40.81
2023-04-18T17:45:06.762Z,40.58
2023-04-18T17:47:33.223Z,40.86
2023-04-18T17:49:59.764Z,40.44
2023-04-18T17:52:27.565Z,40.80
2023-04-18T17:54:54.628Z,41.16
2023-04-18T17:57:20.887Z,41.00
2023-04-18T17:59:46.541Z,40.74
2023-04-18T18:02:12.321Z,41.16
2023-04-18T18:04:38.168Z,40.95
2023-04-18T18:07:04.392Z,41.13
2023-04-18T18:09:30.070Z,40.93
2023-04-18T18:11:56.231Z,41.21
2023-04-18T18:14:22.365Z,41.53
2023-04-18T18:16:48.139Z,41.26
2023-04-18T18:19:14.413Z,41.20
2023-04-18T18:21:40.549Z,41.21
2023-04-18T18:24:06.292Z,41.09
2023-04-18T18:26:32.144Z,41.48
2023-04-18T18:28:58.087Z,41.11
2023-04-18T18:31:24.154Z,41.20
2023-04-18T18:33:50.526Z,41.31
2023-04-18T18:36:16.243Z,41.18
2023-04-18T18:38:41.906Z,41.33
2023-04-18T18:41:07.860Z,41.38
2023-04-18T18:43:33.708Z,41.43
2023-04-18T18:45:59.475Z,41.25
2023-04-18T18:48:26.981Z,41.42
2023-04-18T18:50:52.990Z,41.23
2023-04-18T18:53:18.806Z,41.16
2023-04-18T18:55:44.795Z,41.31
2023-04-18T18:58:10.734Z,41.55
2023-04-18T19:00:36.648Z,41.24
2023-04-18T19:03:02.618Z,41.28
2023-04-18T19:05:28.333Z,41.33
2023-04-18T19:07:53.995Z,41.19
2023-04-18T19:10:20.169Z,41.51
2023-04-18T19:12:45.836Z,41.64
2023-04-18T19:15:11.549Z,41.33
2023-04-18T19:17:37.213Z,41.46
2023-04-18T19:20:03.294Z,41.33
2023-04-18T19:22:29.028Z,41.56
2023-04-18T19:24:54.769Z,41.34
2023-04-18T19:27:20.469Z,41.25
2023-04-18T19:29:46.123Z,41.16
2023-04-18T19:32:11.752Z,41.41
2023-04-18T19:34:37.656Z,41.26
2023-04-18T19:37:03.610Z,41.30
2023-04-18T19:39:29.575Z,41.36
2023-04-18T19:41:55.388Z,41.33
2023-04-18T19:44:21.060Z,41.28
2023-04-18T19:46:46.700Z,41.43
2023-04-18T19:49:12.535Z,41.72
2023-04-18T19:51:39.182Z,41.56
2023-04-18T19:54:05.494Z,41.26
2023-04-18T19:56:31.126Z,41.28
2023-04-18T19:58:57.156Z,41.57
2023-04-18T20:01:24.563Z,41.58
2023-04-18T20:03:50.924Z,41.40
2023-04-18T20:06:17.155Z,41.58
2023-04-18T20:08:44.247Z,41.32
2023-04-18T20:11:10.685Z,41.33
2023-04-18T20:13:36.637Z,41.23
2023-04-18T20:16:04.298Z,41.48
2023-04-18T20:18:31.327Z,41.55
2023-04-18T20:20:57.396Z,41.41
2023-04-18T20:23:23.162Z,41.48
2023-04-18T20:25:48.821Z,41.54
2023-04-18T20:28:14.754Z,41.47
2023-04-18T20:30:40.416Z,41.59
2023-04-18T20:33:06.171Z,41.58
2023-04-18T20:35:31.851Z,41.54
2023-04-18T20:37:59.361Z,41.68
2023-04-18T20:40:26.157Z,41.77
2023-04-18T20:42:53.589Z,41.54
2023-04-18T20:45:20.919Z,41.49
2023-04-18T20:47:46.633Z,41.41
2023-04-18T20:50:13.261Z,41.65
2023-04-18T20:52:41.774Z,41.43
2023-04-18T20:55:07.833Z,41.43
2023-04-18T20:57:33.559Z,41.68
2023-04-18T20:59:59.200Z,41.52
2023-04-18T21:02:25.503Z,41.63
2023-04-18T21:04:51.440Z,41.66
2023-04-18T21:07:17.165Z,41.58
2023-04-18T21:09:42.841Z,41.54
2023-04-18T21:12:08.475Z,41.55
2023-04-18T21:14:34.248Z,41.46
2023-04-18T21:17:00.010Z,41.68
2023-04-18T21:19:25.681Z,41.72
2023-04-18T21:21:51.318Z,41.62
2023-04-18T21:24:17.345Z,41.64
2023-04-18T21:26:43.042Z,41.47
2023-04-18T21:29:08.733Z,41.49
2023-04-18T21:31:34.546Z,41.42
2023-04-18T21:34:02.221Z,41.56
2023-04-18T21:36:28.670Z,41.57
2023-04-18T21:38:55.427Z,41.69
2023-04-18T21:41:21.828Z,41.57
2023-04-18T21:43:47.661Z,41.45
2023-04-18T21:46:13.757Z,41.66
2023-04-18T21:48:40.595Z,41.59
2023-04-18T21:51:07.548Z,41.71
2023-04-18T21:53:33.259Z,41.54
2023-04-18T21:55:58.922Z,41.53
2023-04-18T21:58:24.566Z,41.80
2023-04-18T22:00:50.340Z,41.38
2023-04-18T22:03:16.274Z,41.71
2023-04-18T22:05:42.305Z,41.82
2023-04-18T22:08:09.110Z,41.67
2023-04-18T22:10:35.748Z,41.45
2023-04-18T22:13:03.658Z,41.80
2023-04-18T22:15:29.589Z,41.58
2023-04-18T22:17:55.701Z,41.77
2023-04-18T22:20:21.444Z,41.47
2023-04-18T22:22:47.106Z,41.66
2023-04-18T22:25:13.015Z,41.64
2023-04-18T22:27:38.764Z,41.65
2023-04-18T22:30:05.016Z,41.75
2023-04-18T22:32:30.735Z,41.83
2023-04-18T22:34:56.450Z,41.80
2023-04-18T22:37:22.234Z,41.72
2023-04-18T22:39:47.933Z,41.87
2023-04-18T22:42:13.663Z,41.79
2023-04-18T22:44:39.337Z,41.62
2023-04-18T22:47:05.462Z,41.72
2023-04-18T22:49:32.282Z,41.92
2023-04-18T22:51:57.926Z,41.47
2023-04-18T22:54:23.602Z,41.84
2023-04-18T22:56:49.267Z,41.66
2023-04-18T22:59:14.925Z,41.68
2023-04-18T23:01:40.754Z,41.55
2023-04-18T23:04:06.719Z,41.88
2023-04-18T23:06:32.762Z,41.51
2023-04-18T23:08:58.458Z,41.48
2023-04-18T23:11:24.237Z,41.69
2023-04-18T23:13:50.035Z,41.87
2023-04-18T23:16:15.772Z,41.65
2023-04-18T23:18:41.512Z,41.50
2023-04-18T23:21:07.153Z,41.51
2023-04-18T23:23:32.803Z,41.57
2023-04-18T23:25:58.441Z,41.73
2023-04-18T23:28:24.283Z,41.75
2023-04-18T23:30:49.972Z,41.55
2023-04-18T23:33:15.932Z,41.72
2023-04-18T23:35:42.099Z,41.83
2023-04-18T23:38:07.892Z,41.73
2023-04-18T23:40:33.642Z,41.55
2023-04-18T23:42:59.962Z,41.76
2023-04-18T23:45:25.636Z,41.69
2023-04-18T23:47:51.429Z,41.75
2023-04-18T23:50:17.233Z,41.57
2023-04-18T23:52:42.878Z,41.60
2023-04-18T23:55:09.389Z,41.72
2023-04-18T23:57:35.067Z,41.78
